sensor_id;sensor_type;location;lat;lon;timestamp;P1;durP1;ratioP1;P2;durP2;ratioP2
47481;SDS011;33219;47.410;9.730;2023-07-31T00:02:06;4.35;;;2.37;;
47481;SDS011;33219;47.410;9.730;2023-07-31T00:04:34;5.10;;;2.85;;
47481;SDS011;33219;47.410;9.730;2023-07-31T00:07:01;4.70;;;2.20;;
47481;SDS011;33219;47.410;9.730;2023-07-31T00:09:30;4.53;;;2.05;;
47481;SDS011;33219;47.410;9.730;2023-07-31T00:11:57;5.95;;;2.30;;
47481;SDS011;33219;47.410;9.730;2023-07-31T00:14:25;3.20;;;2.20;;
47481;SDS011;33219;47.410;9.730;2023-07-31T00:16:53;4.67;;;2.20;;
47481;SDS011;33219;47.410;9.730;2023-07-31T00:19:20;6.75;;;2.20;;
47481;SDS011;33219;47.410;9.730;2023-07-31T00:21:48;4.80;;;2.12;;
47481;SDS011;33219;47.410;9.730;2023-07-31T00:24:16;4.75;;;2.35;;
47481;SDS011;33219;47.410;9.730;2023-07-31T00:26:43;4.78;;;2.25;;
47481;SDS011;33219;47.410;9.730;2023-07-31T00:29:11;4.90;;;2.20;;
47481;SDS011;33219;47.410;9.730;2023-07-31T00:31:38;4.25;;;2.20;;
47481;SDS011;33219;47.410;9.730;2023-07-31T00:34:06;3.47;;;2.08;;
47481;SDS011;33219;47.410;9.730;2023-07-31T00:36:33;5.53;;;2.50;;
47481;SDS011;33219;47.410;9.730;2023-07-31T00:39:01;3.85;;;2.22;;
47481;SDS011;33219;47.410;9.730;2023-07-31T00:41:30;2.85;;;2.20;;
47481;SDS011;33219;47.410;9.730;2023-07-31T00:43:58;5.12;;;2.35;;
47481;SDS011;33219;47.410;9.730;2023-07-31T00:46:25;4.33;;;2.10;;
47481;SDS011;33219;47.410;9.730;2023-07-31T00:48:53;6.75;;;2.20;;
47481;SDS011;33219;47.410;9.730;2023-07-31T00:51:20;3.40;;;2.10;;
47481;SDS011;33219;47.410;9.730;2023-07-31T00:53:48;6.03;;;3.27;;
47481;SDS011;33219;47.410;9.730;2023-07-31T00:56:16;3.75;;;2.37;;
47481;SDS011;33219;47.410;9.730;2023-07-31T00:58:43;5.75;;;2.40;;
47481;SDS011;33219;47.410;9.730;2023-07-31T01:01:11;4.50;;;2.12;;
47481;SDS011;33219;47.410;9.730;2023-07-31T01:03:39;3.95;;;2.08;;
47481;SDS011;33219;47.410;9.730;2023-07-31T01:11:19;3.80;;;2.00;;
47481;SDS011;33219;47.410;9.730;2023-07-31T01:13:50;4.22;;;2.20;;
47481;SDS011;33219;47.410;9.730;2023-07-31T01:16:18;4.45;;;2.20;;
47481;SDS011;33219;47.410;9.730;2023-07-31T01:18:45;4.15;;;2.15;;
47481;SDS011;33219;47.410;9.730;2023-07-31T01:21:18;3.52;;;2.15;;
47481;SDS011;33219;47.410;9.730;2023-07-31T01:26:21;5.22;;;2.12;;
47481;SDS011;33219;47.410;9.730;2023-07-31T01:28:53;4.28;;;2.25;;
47481;SDS011;33219;47.410;9.730;2023-07-31T01:31:24;5.60;;;2.30;;
47481;SDS011;33219;47.410;9.730;2023-07-31T01:33:53;4.37;;;2.20;;
47481;SDS011;33219;47.410;9.730;2023-07-31T01:36:23;5.25;;;2.02;;
47481;SDS011;33219;47.410;9.730;2023-07-31T01:38:51;3.30;;;2.33;;
47481;SDS011;33219;47.410;9.730;2023-07-31T01:41:19;5.33;;;2.40;;
47481;SDS011;33219;47.410;9.730;2023-07-31T01:43:47;6.42;;;1.98;;
47481;SDS011;33219;47.410;9.730;2023-07-31T01:46:14;5.87;;;2.12;;
47481;SDS011;33219;47.410;9.730;2023-07-31T01:48:42;4.12;;;1.77;;
47481;SDS011;33219;47.410;9.730;2023-07-31T01:51:09;4.53;;;2.08;;
47481;SDS011;33219;47.410;9.730;2023-07-31T01:53:37;4.03;;;2.10;;
47481;SDS011;33219;47.410;9.730;2023-07-31T01:56:04;4.20;;;2.25;;
47481;SDS011;33219;47.410;9.730;2023-07-31T01:58:32;4.22;;;2.00;;
47481;SDS011;33219;47.410;9.730;2023-07-31T02:01:00;4.62;;;2.33;;
47481;SDS011;33219;47.410;9.730;2023-07-31T02:03:28;4.65;;;2.10;;
47481;SDS011;33219;47.410;9.730;2023-07-31T02:05:56;3.30;;;2.00;;
47481;SDS011;33219;47.410;9.730;2023-07-31T02:08:23;4.50;;;2.10;;
47481;SDS011;33219;47.410;9.730;2023-07-31T02:10:51;5.80;;;2.47;;
47481;SDS011;33219;47.410;9.730;2023-07-31T02:13:19;5.45;;;2.60;;
47481;SDS011;33219;47.410;9.730;2023-07-31T02:15:46;6.80;;;2.30;;
47481;SDS011;33219;47.410;9.730;2023-07-31T02:18:14;4.28;;;2.17;;
47481;SDS011;33219;47.410;9.730;2023-07-31T02:20:42;3.80;;;2.00;;
47481;SDS011;33219;47.410;9.730;2023-07-31T02:23:11;5.03;;;2.05;;
47481;SDS011;33219;47.410;9.730;2023-07-31T02:25:39;4.75;;;2.27;;
47481;SDS011;33219;47.410;9.730;2023-07-31T02:28:06;4.22;;;2.22;;
47481;SDS011;33219;47.410;9.730;2023-07-31T02:30:34;3.72;;;2.20;;
47481;SDS011;33219;47.410;9.730;2023-07-31T02:33:01;7.70;;;2.30;;
47481;SDS011;33219;47.410;9.730;2023-07-31T02:35:29;4.42;;;2.30;;
47481;SDS011;33219;47.410;9.730;2023-07-31T02:37:56;3.75;;;2.10;;
47481;SDS011;33219;47.410;9.730;2023-07-31T02:40:24;4.08;;;2.08;;
47481;SDS011;33219;47.410;9.730;2023-07-31T02:42:51;3.17;;;2.40;;
47481;SDS011;33219;47.410;9.730;2023-07-31T02:45:19;4.12;;;2.20;;
47481;SDS011;33219;47.410;9.730;2023-07-31T02:47:47;3.27;;;1.98;;
47481;SDS011;33219;47.410;9.730;2023-07-31T02:50:14;3.95;;;1.98;;
47481;SDS011;33219;47.410;9.730;2023-07-31T02:52:42;6.17;;;2.50;;
47481;SDS011;33219;47.410;9.730;2023-07-31T02:55:09;3.55;;;2.15;;
47481;SDS011;33219;47.410;9.730;2023-07-31T02:57:37;4.65;;;2.27;;
47481;SDS011;33219;47.410;9.730;2023-07-31T03:00:05;2.92;;;2.20;;
47481;SDS011;33219;47.410;9.730;2023-07-31T03:02:33;5.75;;;2.40;;
47481;SDS011;33219;47.410;9.730;2023-07-31T03:05:01;5.15;;;2.33;;
47481;SDS011;33219;47.410;9.730;2023-07-31T03:07:28;7.22;;;2.25;;
47481;SDS011;33219;47.410;9.730;2023-07-31T03:09:56;2.75;;;2.15;;
47481;SDS011;33219;47.410;9.730;2023-07-31T03:12:24;3.95;;;1.80;;
47481;SDS011;33219;47.410;9.730;2023-07-31T03:14:51;4.25;;;2.35;;
47481;SDS011;33219;47.410;9.730;2023-07-31T03:17:19;4.67;;;2.40;;
47481;SDS011;33219;47.410;9.730;2023-07-31T03:19:46;5.42;;;2.20;;
47481;SDS011;33219;47.410;9.730;2023-07-31T03:22:14;4.67;;;2.47;;
47481;SDS011;33219;47.410;9.730;2023-07-31T03:24:41;5.70;;;2.20;;
47481;SDS011;33219;47.410;9.730;2023-07-31T03:27:09;4.78;;;2.27;;
47481;SDS011;33219;47.410;9.730;2023-07-31T03:29:36;4.55;;;2.40;;
47481;SDS011;33219;47.410;9.730;2023-07-31T03:32:04;5.05;;;2.45;;
47481;SDS011;33219;47.410;9.730;2023-07-31T03:34:32;4.05;;;2.37;;
47481;SDS011;33219;47.410;9.730;2023-07-31T03:36:59;5.00;;;2.52;;
47481;SDS011;33219;47.410;9.730;2023-07-31T03:39:27;5.60;;;2.40;;
47481;SDS011;33219;47.410;9.730;2023-07-31T03:41:55;3.47;;;2.22;;
47481;SDS011;33219;47.410;9.730;2023-07-31T03:44:22;3.92;;;2.25;;
47481;SDS011;33219;47.410;9.730;2023-07-31T03:46:50;6.17;;;2.17;;
47481;SDS011;33219;47.410;9.730;2023-07-31T03:49:17;3.98;;;2.50;;
47481;SDS011;33219;47.410;9.730;2023-07-31T03:51:45;4.75;;;2.50;;
47481;SDS011;33219;47.410;9.730;2023-07-31T03:54:12;3.62;;;2.40;;
47481;SDS011;33219;47.410;9.730;2023-07-31T03:56:42;5.12;;;2.50;;
47481;SDS011;33219;47.410;9.730;2023-07-31T03:59:09;5.72;;;2.52;;
47481;SDS011;33219;47.410;9.730;2023-07-31T04:01:37;5.20;;;2.50;;
47481;SDS011;33219;47.410;9.730;2023-07-31T04:04:04;6.12;;;2.70;;
47481;SDS011;33219;47.410;9.730;2023-07-31T04:06:32;4.20;;;2.60;;
47481;SDS011;33219;47.410;9.730;2023-07-31T04:08:59;4.62;;;2.77;;
47481;SDS011;33219;47.410;9.730;2023-07-31T04:11:28;4.70;;;2.30;;
47481;SDS011;33219;47.410;9.730;2023-07-31T04:13:56;4.35;;;2.55;;
47481;SDS011;33219;47.410;9.730;2023-07-31T04:16:23;6.05;;;2.50;;
47481;SDS011;33219;47.410;9.730;2023-07-31T04:18:51;4.10;;;2.55;;
47481;SDS011;33219;47.410;9.730;2023-07-31T04:21:19;5.83;;;2.67;;
47481;SDS011;33219;47.410;9.730;2023-07-31T04:23:46;3.75;;;2.20;;
47481;SDS011;33219;47.410;9.730;2023-07-31T04:26:14;5.72;;;2.62;;
47481;SDS011;33219;47.410;9.730;2023-07-31T04:28:41;4.78;;;2.58;;
47481;SDS011;33219;47.410;9.730;2023-07-31T04:31:09;4.28;;;2.47;;
47481;SDS011;33219;47.410;9.730;2023-07-31T04:33:36;5.00;;;2.70;;
47481;SDS011;33219;47.410;9.730;2023-07-31T04:36:04;5.70;;;2.25;;
47481;SDS011;33219;47.410;9.730;2023-07-31T04:38:32;4.12;;;2.37;;
47481;SDS011;33219;47.410;9.730;2023-07-31T04:40:59;4.50;;;2.55;;
47481;SDS011;33219;47.410;9.730;2023-07-31T04:43:27;6.97;;;2.50;;
47481;SDS011;33219;47.410;9.730;2023-07-31T04:45:54;5.53;;;2.40;;
47481;SDS011;33219;47.410;9.730;2023-07-31T04:48:22;4.72;;;2.22;;
47481;SDS011;33219;47.410;9.730;2023-07-31T04:50:50;4.35;;;2.60;;
47481;SDS011;33219;47.410;9.730;2023-07-31T04:53:18;3.92;;;2.42;;
47481;SDS011;33219;47.410;9.730;2023-07-31T04:55:46;3.67;;;2.30;;
47481;SDS011;33219;47.410;9.730;2023-07-31T04:58:13;3.45;;;2.25;;
47481;SDS011;33219;47.410;9.730;2023-07-31T05:00:41;4.20;;;2.60;;
47481;SDS011;33219;47.410;9.730;2023-07-31T05:03:08;5.75;;;2.55;;
47481;SDS011;33219;47.410;9.730;2023-07-31T05:05:37;3.87;;;2.60;;
47481;SDS011;33219;47.410;9.730;2023-07-31T05:08:04;4.90;;;3.05;;
47481;SDS011;33219;47.410;9.730;2023-07-31T05:10:32;4.15;;;2.60;;
47481;SDS011;33219;47.410;9.730;2023-07-31T05:13:00;4.72;;;2.47;;
47481;SDS011;33219;47.410;9.730;2023-07-31T05:15:29;4.35;;;2.67;;
47481;SDS011;33219;47.410;9.730;2023-07-31T05:17:57;7.00;;;2.70;;
47481;SDS011;33219;47.410;9.730;2023-07-31T05:20:24;5.00;;;2.37;;
47481;SDS011;33219;47.410;9.730;2023-07-31T05:22:53;5.70;;;3.15;;
47481;SDS011;33219;47.410;9.730;2023-07-31T05:25:21;10.23;;;7.08;;
47481;SDS011;33219;47.410;9.730;2023-07-31T05:27:48;8.30;;;5.03;;
47481;SDS011;33219;47.410;9.730;2023-07-31T05:30:16;6.10;;;3.60;;
47481;SDS011;33219;47.410;9.730;2023-07-31T05:32:44;4.75;;;3.22;;
47481;SDS011;33219;47.410;9.730;2023-07-31T05:35:11;4.50;;;3.42;;
47481;SDS011;33219;47.410;9.730;2023-07-31T05:37:39;6.42;;;3.22;;
47481;SDS011;33219;47.410;9.730;2023-07-31T05:40:06;6.35;;;3.08;;
47481;SDS011;33219;47.410;9.730;2023-07-31T05:42:34;4.40;;;2.90;;
47481;SDS011;33219;47.410;9.730;2023-07-31T05:45:04;5.67;;;2.98;;
47481;SDS011;33219;47.410;9.730;2023-07-31T05:47:33;6.70;;;3.25;;
47481;SDS011;33219;47.410;9.730;2023-07-31T05:50:01;8.78;;;3.70;;
47481;SDS011;33219;47.410;9.730;2023-07-31T05:52:28;6.85;;;3.30;;
47481;SDS011;33219;47.410;9.730;2023-07-31T05:54:56;5.35;;;3.35;;
47481;SDS011;33219;47.410;9.730;2023-07-31T05:57:23;6.40;;;3.50;;
47481;SDS011;33219;47.410;9.730;2023-07-31T05:59:51;5.25;;;3.20;;
47481;SDS011;33219;47.410;9.730;2023-07-31T06:02:19;6.17;;;3.37;;
47481;SDS011;33219;47.410;9.730;2023-07-31T06:04:46;5.42;;;2.90;;
47481;SDS011;33219;47.410;9.730;2023-07-31T06:07:14;6.22;;;3.17;;
47481;SDS011;33219;47.410;9.730;2023-07-31T06:09:42;6.22;;;2.80;;
47481;SDS011;33219;47.410;9.730;2023-07-31T06:12:09;5.87;;;2.95;;
47481;SDS011;33219;47.410;9.730;2023-07-31T06:14:37;7.17;;;2.80;;
47481;SDS011;33219;47.410;9.730;2023-07-31T06:17:04;6.70;;;3.25;;
47481;SDS011;33219;47.410;9.730;2023-07-31T06:19:32;6.58;;;2.85;;
47481;SDS011;33219;47.410;9.730;2023-07-31T06:22:00;6.15;;;3.35;;
47481;SDS011;33219;47.410;9.730;2023-07-31T06:24:27;5.47;;;3.08;;
47481;SDS011;33219;47.410;9.730;2023-07-31T06:26:55;5.45;;;3.00;;
47481;SDS011;33219;47.410;9.730;2023-07-31T06:29:23;6.40;;;3.10;;
47481;SDS011;33219;47.410;9.730;2023-07-31T06:31:51;5.90;;;3.10;;
47481;SDS011;33219;47.410;9.730;2023-07-31T06:34:18;5.67;;;2.72;;
47481;SDS011;33219;47.410;9.730;2023-07-31T06:36:46;11.88;;;6.95;;
47481;SDS011;33219;47.410;9.730;2023-07-31T06:39:13;10.55;;;6.17;;
47481;SDS011;33219;47.410;9.730;2023-07-31T06:41:41;11.63;;;6.40;;
47481;SDS011;33219;47.410;9.730;2023-07-31T06:44:09;12.47;;;6.30;;
47481;SDS011;33219;47.410;9.730;2023-07-31T06:46:37;10.82;;;4.40;;
47481;SDS011;33219;47.410;9.730;2023-07-31T06:49:05;8.83;;;3.95;;
47481;SDS011;33219;47.410;9.730;2023-07-31T06:51:32;7.85;;;3.12;;
47481;SDS011;33219;47.410;9.730;2023-07-31T06:54:01;7.20;;;3.17;;
47481;SDS011;33219;47.410;9.730;2023-07-31T06:56:29;27.45;;;7.53;;
47481;SDS011;33219;47.410;9.730;2023-07-31T06:58:56;6.05;;;3.30;;
47481;SDS011;33219;47.410;9.730;2023-07-31T07:01:24;6.97;;;3.25;;
47481;SDS011;33219;47.410;9.730;2023-07-31T07:03:51;10.53;;;4.05;;
47481;SDS011;33219;47.410;9.730;2023-07-31T07:06:19;6.42;;;2.70;;
47481;SDS011;33219;47.410;9.730;2023-07-31T07:08:48;5.85;;;3.10;;
47481;SDS011;33219;47.410;9.730;2023-07-31T07:11:16;6.67;;;3.20;;
47481;SDS011;33219;47.410;9.730;2023-07-31T07:13:43;6.92;;;2.70;;
47481;SDS011;33219;47.410;9.730;2023-07-31T07:16:11;5.85;;;2.72;;
47481;SDS011;33219;47.410;9.730;2023-07-31T07:18:38;4.60;;;2.67;;
47481;SDS011;33219;47.410;9.730;2023-07-31T07:21:06;6.17;;;2.90;;
47481;SDS011;33219;47.410;9.730;2023-07-31T07:23:34;3.87;;;2.55;;
47481;SDS011;33219;47.410;9.730;2023-07-31T07:26:01;5.70;;;3.17;;
47481;SDS011;33219;47.410;9.730;2023-07-31T07:28:29;6.50;;;3.05;;
47481;SDS011;33219;47.410;9.730;2023-07-31T07:30:56;5.35;;;2.85;;
47481;SDS011;33219;47.410;9.730;2023-07-31T07:33:24;5.10;;;2.80;;
47481;SDS011;33219;47.410;9.730;2023-07-31T07:35:52;4.08;;;2.62;;
47481;SDS011;33219;47.410;9.730;2023-07-31T07:38:19;3.90;;;2.77;;
47481;SDS011;33219;47.410;9.730;2023-07-31T07:40:47;6.42;;;2.95;;
47481;SDS011;33219;47.410;9.730;2023-07-31T07:43:16;5.72;;;2.90;;
47481;SDS011;33219;47.410;9.730;2023-07-31T07:45:43;4.30;;;2.65;;
47481;SDS011;33219;47.410;9.730;2023-07-31T07:48:11;5.05;;;2.60;;
47481;SDS011;33219;47.410;9.730;2023-07-31T07:50:38;6.30;;;2.75;;
47481;SDS011;33219;47.410;9.730;2023-07-31T07:53:06;4.03;;;2.87;;
47481;SDS011;33219;47.410;9.730;2023-07-31T07:55:33;4.60;;;2.60;;
47481;SDS011;33219;47.410;9.730;2023-07-31T07:58:02;5.00;;;2.67;;
47481;SDS011;33219;47.410;9.730;2023-07-31T08:00:30;5.90;;;2.80;;
47481;SDS011;33219;47.410;9.730;2023-07-31T08:02:57;6.50;;;2.85;;
47481;SDS011;33219;47.410;9.730;2023-07-31T08:05:25;3.33;;;2.42;;
47481;SDS011;33219;47.410;9.730;2023-07-31T08:07:52;3.87;;;2.20;;
47481;SDS011;33219;47.410;9.730;2023-07-31T08:10:20;4.95;;;2.50;;
47481;SDS011;33219;47.410;9.730;2023-07-31T08:12:47;3.47;;;2.33;;
47481;SDS011;33219;47.410;9.730;2023-07-31T08:15:15;4.17;;;2.25;;
47481;SDS011;33219;47.410;9.730;2023-07-31T08:17:42;4.42;;;2.05;;
47481;SDS011;33219;47.410;9.730;2023-07-31T08:20:10;4.85;;;2.20;;
47481;SDS011;33219;47.410;9.730;2023-07-31T08:22:38;3.92;;;2.12;;
47481;SDS011;33219;47.410;9.730;2023-07-31T08:25:06;4.53;;;2.02;;
47481;SDS011;33219;47.410;9.730;2023-07-31T08:27:34;3.58;;;1.80;;
47481;SDS011;33219;47.410;9.730;2023-07-31T08:30:05;3.52;;;2.00;;
47481;SDS011;33219;47.410;9.730;2023-07-31T08:32:33;3.40;;;1.90;;
47481;SDS011;33219;47.410;9.730;2023-07-31T08:35:00;4.28;;;1.90;;
47481;SDS011;33219;47.410;9.730;2023-07-31T08:37:28;4.85;;;2.20;;
47481;SDS011;33219;47.410;9.730;2023-07-31T08:39:56;5.03;;;1.98;;
47481;SDS011;33219;47.410;9.730;2023-07-31T08:42:24;3.12;;;1.90;;
47481;SDS011;33219;47.410;9.730;2023-07-31T08:44:52;7.53;;;2.40;;
47481;SDS011;33219;47.410;9.730;2023-07-31T08:47:20;5.17;;;2.00;;
47481;SDS011;33219;47.410;9.730;2023-07-31T08:49:48;5.50;;;2.02;;
47481;SDS011;33219;47.410;9.730;2023-07-31T08:52:17;3.85;;;2.00;;
47481;SDS011;33219;47.410;9.730;2023-07-31T08:54:45;3.80;;;2.00;;
47481;SDS011;33219;47.410;9.730;2023-07-31T08:57:13;3.98;;;2.08;;
47481;SDS011;33219;47.410;9.730;2023-07-31T08:59:41;5.60;;;3.95;;
47481;SDS011;33219;47.410;9.730;2023-07-31T09:02:09;4.55;;;2.60;;
47481;SDS011;33219;47.410;9.730;2023-07-31T09:04:38;3.55;;;2.10;;
47481;SDS011;33219;47.410;9.730;2023-07-31T09:07:05;3.45;;;1.90;;
47481;SDS011;33219;47.410;9.730;2023-07-31T09:09:35;4.30;;;2.08;;
47481;SDS011;33219;47.410;9.730;2023-07-31T09:12:03;4.50;;;2.17;;
47481;SDS011;33219;47.410;9.730;2023-07-31T09:14:32;4.95;;;2.25;;
47481;SDS011;33219;47.410;9.730;2023-07-31T09:17:00;3.45;;;1.95;;
47481;SDS011;33219;47.410;9.730;2023-07-31T09:19:29;6.35;;;2.12;;
47481;SDS011;33219;47.410;9.730;2023-07-31T09:22:02;4.97;;;2.00;;
47481;SDS011;33219;47.410;9.730;2023-07-31T09:24:31;4.35;;;2.00;;
47481;SDS011;33219;47.410;9.730;2023-07-31T09:27:00;3.52;;;2.20;;
47481;SDS011;33219;47.410;9.730;2023-07-31T09:32:36;4.08;;;2.00;;
47481;SDS011;33219;47.410;9.730;2023-07-31T09:35:27;3.67;;;2.00;;
47481;SDS011;33219;47.410;9.730;2023-07-31T09:37:59;5.83;;;2.08;;
47481;SDS011;33219;47.410;9.730;2023-07-31T09:40:31;5.05;;;2.10;;
47481;SDS011;33219;47.410;9.730;2023-07-31T09:43:02;5.95;;;2.58;;
47481;SDS011;33219;47.410;9.730;2023-07-31T09:45:33;4.25;;;2.40;;
47481;SDS011;33219;47.410;9.730;2023-07-31T09:48:03;3.85;;;2.33;;
47481;SDS011;33219;47.410;9.730;2023-07-31T09:50:32;3.22;;;1.90;;
47481;SDS011;33219;47.410;9.730;2023-07-31T09:52:59;4.90;;;3.10;;
47481;SDS011;33219;47.410;9.730;2023-07-31T09:55:27;6.15;;;3.58;;
47481;SDS011;33219;47.410;9.730;2023-07-31T09:57:57;6.92;;;4.10;;
47481;SDS011;33219;47.410;9.730;2023-07-31T10:00:25;5.25;;;2.50;;
47481;SDS011;33219;47.410;9.730;2023-07-31T10:02:54;3.95;;;2.12;;
47481;SDS011;33219;47.410;9.730;2023-07-31T10:05:23;6.47;;;2.33;;
47481;SDS011;33219;47.410;9.730;2023-07-31T10:07:55;5.40;;;2.60;;
47481;SDS011;33219;47.410;9.730;2023-07-31T10:10:24;3.80;;;2.22;;
47481;SDS011;33219;47.410;9.730;2023-07-31T10:12:53;3.95;;;2.30;;
47481;SDS011;33219;47.410;9.730;2023-07-31T10:15:23;5.05;;;2.40;;
47481;SDS011;33219;47.410;9.730;2023-07-31T10:17:52;3.83;;;2.37;;
47481;SDS011;33219;47.410;9.730;2023-07-31T10:20:22;3.58;;;2.12;;
47481;SDS011;33219;47.410;9.730;2023-07-31T10:22:50;4.50;;;2.35;;
47481;SDS011;33219;47.410;9.730;2023-07-31T10:25:19;4.33;;;2.33;;
47481;SDS011;33219;47.410;9.730;2023-07-31T10:27:48;3.83;;;2.55;;
47481;SDS011;33219;47.410;9.730;2023-07-31T10:30:17;5.47;;;2.33;;
47481;SDS011;33219;47.410;9.730;2023-07-31T10:32:47;5.05;;;2.40;;
47481;SDS011;33219;47.410;9.730;2023-07-31T10:35:16;5.47;;;2.20;;
47481;SDS011;33219;47.410;9.730;2023-07-31T10:37:44;5.12;;;2.55;;
47481;SDS011;33219;47.410;9.730;2023-07-31T10:40:13;4.60;;;2.30;;
47481;SDS011;33219;47.410;9.730;2023-07-31T10:42:54;6.45;;;2.50;;
47481;SDS011;33219;47.410;9.730;2023-07-31T10:45:24;5.92;;;2.90;;
47481;SDS011;33219;47.410;9.730;2023-07-31T10:47:59;4.90;;;2.45;;
47481;SDS011;33219;47.410;9.730;2023-07-31T10:50:28;4.58;;;2.52;;
47481;SDS011;33219;47.410;9.730;2023-07-31T10:53:00;5.03;;;2.50;;
47481;SDS011;33219;47.410;9.730;2023-07-31T10:55:41;5.30;;;2.62;;
47481;SDS011;33219;47.410;9.730;2023-07-31T10:58:10;4.87;;;2.50;;
47481;SDS011;33219;47.410;9.730;2023-07-31T11:00:42;3.40;;;2.17;;
47481;SDS011;33219;47.410;9.730;2023-07-31T11:03:12;5.15;;;2.58;;
47481;SDS011;33219;47.410;9.730;2023-07-31T11:05:41;4.80;;;2.37;;
47481;SDS011;33219;47.410;9.730;2023-07-31T11:08:15;6.97;;;2.80;;
47481;SDS011;33219;47.410;9.730;2023-07-31T11:10:51;5.90;;;3.20;;
47481;SDS011;33219;47.410;9.730;2023-07-31T11:13:23;5.53;;;2.52;;
47481;SDS011;33219;47.410;9.730;2023-07-31T11:15:51;6.10;;;2.75;;
47481;SDS011;33219;47.410;9.730;2023-07-31T11:18:18;5.70;;;2.37;;
47481;SDS011;33219;47.410;9.730;2023-07-31T11:20:46;5.03;;;2.47;;
47481;SDS011;33219;47.410;9.730;2023-07-31T11:23:16;4.62;;;2.47;;
47481;SDS011;33219;47.410;9.730;2023-07-31T11:25:44;6.65;;;2.50;;
47481;SDS011;33219;47.410;9.730;2023-07-31T11:28:12;4.15;;;2.35;;
47481;SDS011;33219;47.410;9.730;2023-07-31T11:30:41;8.03;;;3.10;;
47481;SDS011;33219;47.410;9.730;2023-07-31T11:33:10;6.15;;;2.70;;
47481;SDS011;33219;47.410;9.730;2023-07-31T11:35:43;3.98;;;2.27;;
47481;SDS011;33219;47.410;9.730;2023-07-31T11:38:20;4.60;;;2.33;;
47481;SDS011;33219;47.410;9.730;2023-07-31T11:40:55;6.00;;;2.50;;
47481;SDS011;33219;47.410;9.730;2023-07-31T11:43:24;4.85;;;2.37;;
47481;SDS011;33219;47.410;9.730;2023-07-31T11:45:53;4.75;;;2.25;;
47481;SDS011;33219;47.410;9.730;2023-07-31T11:48:26;5.42;;;2.37;;
47481;SDS011;33219;47.410;9.730;2023-07-31T11:51:05;5.72;;;2.37;;
47481;SDS011;33219;47.410;9.730;2023-07-31T11:56:12;3.80;;;2.27;;
47481;SDS011;33219;47.410;9.730;2023-07-31T11:58:41;5.70;;;2.70;;
47481;SDS011;33219;47.410;9.730;2023-07-31T12:01:10;4.05;;;2.33;;
47481;SDS011;33219;47.410;9.730;2023-07-31T12:03:38;5.03;;;2.40;;
47481;SDS011;33219;47.410;9.730;2023-07-31T12:06:06;4.67;;;2.20;;
47481;SDS011;33219;47.410;9.730;2023-07-31T12:08:35;5.72;;;2.40;;
47481;SDS011;33219;47.410;9.730;2023-07-31T12:11:04;4.22;;;2.70;;
47481;SDS011;33219;47.410;9.730;2023-07-31T12:13:33;4.72;;;2.65;;
47481;SDS011;33219;47.410;9.730;2023-07-31T12:16:01;5.03;;;2.62;;
47481;SDS011;33219;47.410;9.730;2023-07-31T12:18:33;5.33;;;2.60;;
47481;SDS011;33219;47.410;9.730;2023-07-31T12:21:06;4.00;;;2.30;;
47481;SDS011;33219;47.410;9.730;2023-07-31T12:23:37;4.65;;;2.25;;
47481;SDS011;33219;47.410;9.730;2023-07-31T12:28:43;4.20;;;2.50;;
47481;SDS011;33219;47.410;9.730;2023-07-31T12:31:12;4.47;;;2.30;;
47481;SDS011;33219;47.410;9.730;2023-07-31T12:33:44;4.28;;;2.47;;
47481;SDS011;33219;47.410;9.730;2023-07-31T12:36:18;5.37;;;2.35;;
47481;SDS011;33219;47.410;9.730;2023-07-31T12:38:43;4.57;;;2.43;;
47481;SDS011;33219;47.410;9.730;2023-07-31T12:41:11;5.58;;;2.47;;
47481;SDS011;33219;47.410;9.730;2023-07-31T12:43:40;4.37;;;2.10;;
47481;SDS011;33219;47.410;9.730;2023-07-31T12:46:08;4.20;;;2.22;;
47481;SDS011;33219;47.410;9.730;2023-07-31T12:48:37;5.00;;;2.22;;
47481;SDS011;33219;47.410;9.730;2023-07-31T12:51:05;4.00;;;2.50;;
47481;SDS011;33219;47.410;9.730;2023-07-31T12:53:33;4.97;;;2.67;;
47481;SDS011;33219;47.410;9.730;2023-07-31T12:56:01;5.28;;;2.40;;
47481;SDS011;33219;47.410;9.730;2023-07-31T12:58:28;4.17;;;2.27;;
47481;SDS011;33219;47.410;9.730;2023-07-31T13:00:56;5.50;;;2.30;;
47481;SDS011;33219;47.410;9.730;2023-07-31T13:03:24;5.03;;;2.70;;
47481;SDS011;33219;47.410;9.730;2023-07-31T13:05:51;4.58;;;2.30;;
47481;SDS011;33219;47.410;9.730;2023-07-31T13:08:19;4.20;;;2.60;;
47481;SDS011;33219;47.410;9.730;2023-07-31T13:10:47;4.10;;;2.60;;
47481;SDS011;33219;47.410;9.730;2023-07-31T13:13:14;5.60;;;2.92;;
47481;SDS011;33219;47.410;9.730;2023-07-31T13:15:43;3.80;;;2.50;;
47481;SDS011;33219;47.410;9.730;2023-07-31T13:18:11;4.35;;;2.70;;
47481;SDS011;33219;47.410;9.730;2023-07-31T13:20:39;5.28;;;2.27;;
47481;SDS011;33219;47.410;9.730;2023-07-31T13:23:06;4.25;;;2.55;;
47481;SDS011;33219;47.410;9.730;2023-07-31T13:25:34;4.87;;;2.58;;
47481;SDS011;33219;47.410;9.730;2023-07-31T13:28:01;4.03;;;2.37;;
47481;SDS011;33219;47.410;9.730;2023-07-31T13:30:29;5.42;;;2.60;;
47481;SDS011;33219;47.410;9.730;2023-07-31T13:32:57;5.03;;;2.60;;
47481;SDS011;33219;47.410;9.730;2023-07-31T13:35:25;4.25;;;2.60;;
47481;SDS011;33219;47.410;9.730;2023-07-31T13:37:52;4.92;;;2.50;;
47481;SDS011;33219;47.410;9.730;2023-07-31T13:40:20;6.95;;;2.65;;
47481;SDS011;33219;47.410;9.730;2023-07-31T13:42:48;4.10;;;2.40;;
47481;SDS011;33219;47.410;9.730;2023-07-31T13:45:16;4.83;;;2.25;;
47481;SDS011;33219;47.410;9.730;2023-07-31T13:47:44;4.92;;;2.42;;
47481;SDS011;33219;47.410;9.730;2023-07-31T13:50:12;4.28;;;2.67;;
47481;SDS011;33219;47.410;9.730;2023-07-31T13:52:40;4.95;;;2.35;;
47481;SDS011;33219;47.410;9.730;2023-07-31T13:55:07;4.92;;;2.50;;
47481;SDS011;33219;47.410;9.730;2023-07-31T13:57:35;4.28;;;2.70;;
47481;SDS011;33219;47.410;9.730;2023-07-31T14:00:02;4.35;;;2.47;;
47481;SDS011;33219;47.410;9.730;2023-07-31T14:02:30;4.87;;;2.52;;
47481;SDS011;33219;47.410;9.730;2023-07-31T14:04:58;5.35;;;2.70;;
47481;SDS011;33219;47.410;9.730;2023-07-31T14:07:25;4.45;;;2.50;;
47481;SDS011;33219;47.410;9.730;2023-07-31T14:09:53;7.28;;;4.30;;
47481;SDS011;33219;47.410;9.730;2023-07-31T14:12:20;5.20;;;2.60;;
47481;SDS011;33219;47.410;9.730;2023-07-31T14:14:48;6.90;;;3.47;;
47481;SDS011;33219;47.410;9.730;2023-07-31T14:17:16;6.50;;;2.87;;
47481;SDS011;33219;47.410;9.730;2023-07-31T14:19:43;4.95;;;2.50;;
47481;SDS011;33219;47.410;9.730;2023-07-31T14:22:11;4.70;;;2.50;;
47481;SDS011;33219;47.410;9.730;2023-07-31T14:24:38;5.22;;;2.25;;
47481;SDS011;33219;47.410;9.730;2023-07-31T14:27:06;4.10;;;2.35;;
47481;SDS011;33219;47.410;9.730;2023-07-31T14:29:34;4.40;;;2.40;;
47481;SDS011;33219;47.410;9.730;2023-07-31T14:32:02;4.85;;;2.42;;
47481;SDS011;33219;47.410;9.730;2023-07-31T14:34:30;4.72;;;2.60;;
47481;SDS011;33219;47.410;9.730;2023-07-31T14:36:58;4.33;;;2.40;;
47481;SDS011;33219;47.410;9.730;2023-07-31T14:39:25;3.33;;;2.20;;
47481;SDS011;33219;47.410;9.730;2023-07-31T14:41:53;4.60;;;2.35;;
47481;SDS011;33219;47.410;9.730;2023-07-31T14:44:20;4.28;;;2.40;;
47481;SDS011;33219;47.410;9.730;2023-07-31T14:46:48;3.65;;;2.40;;
47481;SDS011;33219;47.410;9.730;2023-07-31T14:49:15;3.80;;;2.40;;
47481;SDS011;33219;47.410;9.730;2023-07-31T14:51:43;4.92;;;2.33;;
47481;SDS011;33219;47.410;9.730;2023-07-31T14:54:11;4.53;;;2.10;;
47481;SDS011;33219;47.410;9.730;2023-07-31T14:56:38;6.72;;;2.98;;
47481;SDS011;33219;47.410;9.730;2023-07-31T14:59:06;5.20;;;2.33;;
47481;SDS011;33219;47.410;9.730;2023-07-31T15:01:35;6.80;;;2.75;;
47481;SDS011;33219;47.410;9.730;2023-07-31T15:04:02;4.60;;;2.30;;
47481;SDS011;33219;47.410;9.730;2023-07-31T15:06:30;2.77;;;2.05;;
47481;SDS011;33219;47.410;9.730;2023-07-31T15:08:57;4.12;;;2.33;;
47481;SDS011;33219;47.410;9.730;2023-07-31T15:11:25;3.35;;;2.08;;